sensor_id;sensor_type;location;lat;lon;timestamp;pressure;altitude;pressure_sealevel;temperature;humidity
37860;BME280;23698;52.014;5.190;2022-07-22T00:03:00;102177.63;;;16.49;100.00
37860;BME280;23698;52.014;5.190;2022-07-22T00:06:05;102168.06;;;16.38;100.00
37860;BME280;23698;52.014;5.190;2022-07-22T00:09:10;102168.84;;;16.53;100.00
37860;BME280;23698;52.014;5.190;2022-07-22T00:12:17;102172.16;;;16.49;100.00
37860;BME280;23698;52.014;5.190;2022-07-22T00:15:22;102166.69;;;16.49;100.00
37860;BME280;23698;52.014;5.190;2022-07-22T00:18:28;102166.69;;;16.49;100.00
37860;BME280;23698;52.014;5.190;2022-07-22T00:21:33;102160.63;;;16.53;100.00
37860;BME280;23698;52.014;5.190;2022-07-22T00:24:38;102156.75;;;16.48;100.00
37860;BME280;23698;52.014;5.190;2022-07-22T00:27:45;102154.03;;;16.48;100.00
37860;BME280;23698;52.014;5.190;2022-07-22T00:30:50;102156.22;;;16.59;100.00
37860;BME280;23698;52.014;5.190;2022-07-22T00:33:59;102150.84;;;16.72;100.00
37860;BME280;23698;52.014;5.190;2022-07-22T00:37:06;102152.53;;;16.73;100.00
37860;BME280;23698;52.014;5.190;2022-07-22T00:40:12;102154.00;;;16.69;100.00
37860;BME280;23698;52.014;5.190;2022-07-22T00:43:18;102153.94;;;16.63;100.00
37860;BME280;23698;52.014;5.190;2022-07-22T00:46:24;102156.47;;;16.64;100.00
37860;BME280;23698;52.014;5.190;2022-07-22T00:49:30;102155.22;;;16.67;100.00
37860;BME280;23698;52.014;5.190;2022-07-22T00:52:36;102148.31;;;16.71;100.00
37860;BME280;23698;52.014;5.190;2022-07-22T00:55:40;102143.53;;;16.79;100.00
37860;BME280;23698;52.014;5.190;2022-07-22T00:58:50;102143.44;;;16.66;100.00
37860;BME280;23698;52.014;5.190;2022-07-22T01:01:56;102137.75;;;16.68;100.00
37860;BME280;23698;52.014;5.190;2022-07-22T01:05:01;102141.53;;;16.67;100.00
37860;BME280;23698;52.014;5.190;2022-07-22T01:08:07;102146.56;;;16.63;100.00
37860;BME280;23698;52.014;5.190;2022-07-22T01:11:15;102149.50;;;16.61;100.00
37860;BME280;23698;52.014;5.190;2022-07-22T01:14:22;102141.50;;;16.60;100.00
37860;BME280;23698;52.014;5.190;2022-07-22T01:17:26;102146.56;;;16.63;100.00
37860;BME280;23698;52.014;5.190;2022-07-22T01:20:36;102146.16;;;16.66;100.00
37860;BME280;23698;52.014;5.190;2022-07-22T01:23:43;102144.06;;;16.68;100.00
37860;BME280;23698;52.014;5.190;2022-07-22T01:26:48;102139.47;;;16.75;100.00
37860;BME280;23698;52.014;5.190;2022-07-22T01:29:54;102136.50;;;16.70;100.00
37860;BME280;23698;52.014;5.190;2022-07-22T01:32:59;102140.75;;;16.73;100.00
37860;BME280;23698;52.014;5.190;2022-07-22T01:36:07;102140.06;;;16.64;100.00
37860;BME280;23698;52.014;5.190;2022-07-22T01:39:12;102138.00;;;16.73;100.00
37860;BME280;23698;52.014;5.190;2022-07-22T01:42:17;102137.75;;;16.68;100.00
37860;BME280;23698;52.014;5.190;2022-07-22T01:45:23;102131.25;;;16.69;100.00
37860;BME280;23698;52.014;5.190;2022-07-22T01:48:28;102135.84;;;16.68;100.00
37860;BME280;23698;52.014;5.190;2022-07-22T01:51:35;102132.28;;;16.68;100.00
37860;BME280;23698;52.014;5.190;2022-07-22T01:54:40;102130.41;;;16.75;100.00
37860;BME280;23698;52.014;5.190;2022-07-22T01:57:47;102127.41;;;16.63;100.00
37860;BME280;23698;52.014;5.190;2022-07-22T02:01:00;102128.47;;;16.62;100.00
37860;BME280;23698;52.014;5.190;2022-07-22T02:04:05;102134.78;;;16.63;100.00
37860;BME280;23698;52.014;5.190;2022-07-22T02:07:11;102126.97;;;16.59;100.00
37860;BME280;23698;52.014;5.190;2022-07-22T02:10:17;102126.75;;;16.61;100.00
37860;BME280;23698;52.014;5.190;2022-07-22T02:13:23;102123.00;;;16.62;100.00
37860;BME280;23698;52.014;5.190;2022-07-22T02:16:29;102115.75;;;16.54;100.00
37860;BME280;23698;52.014;5.190;2022-07-22T02:19:35;102114.09;;;16.53;100.00
37860;BME280;23698;52.014;5.190;2022-07-22T02:22:41;102114.47;;;16.50;100.00
37860;BME280;23698;52.014;5.190;2022-07-22T02:25:46;102109.00;;;16.50;100.00
37860;BME280;23698;52.014;5.190;2022-07-22T02:28:53;102113.44;;;16.51;100.00
37860;BME280;23698;52.014;5.190;2022-07-22T02:31:59;102109.44;;;16.54;100.00
37860;BME280;23698;52.014;5.190;2022-07-22T02:35:05;102112.38;;;16.52;100.00
37860;BME280;23698;52.014;5.190;2022-07-22T02:38:12;102116.19;;;16.51;100.00
37860;BME280;23698;52.014;5.190;2022-07-22T02:41:17;102113.03;;;16.54;100.00
37860;BME280;23698;52.014;5.190;2022-07-22T02:44:27;102117.22;;;16.50;100.00
37860;BME280;23698;52.014;5.190;2022-07-22T02:47:33;102124.59;;;16.50;100.00
37860;BME280;23698;52.014;5.190;2022-07-22T02:50:45;102130.25;;;16.48;100.00
37860;BME280;23698;52.014;5.190;2022-07-22T02:53:56;102120.97;;;16.49;100.00
37860;BME280;23698;52.014;5.190;2022-07-22T02:57:01;102127.53;;;16.48;100.00
37860;BME280;23698;52.014;5.190;2022-07-22T03:00:08;102116.56;;;16.48;100.00
37860;BME280;23698;52.014;5.190;2022-07-22T03:03:14;102115.97;;;16.53;100.00
37860;BME280;23698;52.014;5.190;2022-07-22T03:06:20;102116.13;;;16.45;100.00
37860;BME280;23698;52.014;5.190;2022-07-22T03:09:36;102111.06;;;16.41;100.00
37860;BME280;23698;52.014;5.190;2022-07-22T03:12:41;102108.63;;;16.53;100.00
37860;BME280;23698;52.014;5.190;2022-07-22T03:15:46;102113.22;;;16.53;100.00
37860;BME280;23698;52.014;5.190;2022-07-22T03:18:51;102111.75;;;16.50;100.00
37860;BME280;23698;52.014;5.190;2022-07-22T03:21:57;102113.59;;;16.43;100.00
37860;BME280;23698;52.014;5.190;2022-07-22T03:25:04;102117.28;;;16.57;100.00
37860;BME280;23698;52.014;5.190;2022-07-22T03:28:10;102113.66;;;16.56;100.00
37860;BME280;23698;52.014;5.190;2022-07-22T03:31:15;102120.19;;;16.55;100.00
37860;BME280;23698;52.014;5.190;2022-07-22T03:34:21;102116.31;;;16.43;100.00
37860;BME280;23698;52.014;5.190;2022-07-22T03:37:35;102111.75;;;16.50;100.00
37860;BME280;23698;52.014;5.190;2022-07-22T03:40:42;102111.34;;;16.53;100.00
37860;BME280;23698;52.014;5.190;2022-07-22T03:43:47;102109.19;;;16.49;100.00
37860;BME280;23698;52.014;5.190;2022-07-22T03:46:53;102110.41;;;16.39;100.00
37860;BME280;23698;52.014;5.190;2022-07-22T03:50:00;102108.38;;;16.48;100.00
37860;BME280;23698;52.014;5.190;2022-07-22T03:53:06;102109.16;;;16.42;100.00
37860;BME280;23698;52.014;5.190;2022-07-22T03:56:16;102109.53;;;16.39;100.00
37860;BME280;23698;52.014;5.190;2022-07-22T03:59:21;102118.38;;;16.34;100.00
37860;BME280;23698;52.014;5.190;2022-07-22T04:02:27;102115.84;;;16.33;100.00
37860;BME280;23698;52.014;5.190;2022-07-22T04:05:32;102111.44;;;16.38;100.00
37860;BME280;23698;52.014;5.190;2022-07-22T04:08:37;102109.16;;;16.42;100.00
37860;BME280;23698;52.014;5.190;2022-07-22T04:11:44;102110.59;;;16.38;100.00
37860;BME280;23698;52.014;5.190;2022-07-22T04:14:50;102105.56;;;16.41;100.00
37860;BME280;23698;52.014;5.190;2022-07-22T04:17:56;102103.03;;;16.40;100.00
37860;BME280;23698;52.014;5.190;2022-07-22T04:21:02;102111.06;;;16.41;100.00
37860;BME280;23698;52.014;5.190;2022-07-22T04:24:26;102114.44;;;16.43;100.00
37860;BME280;23698;52.014;5.190;2022-07-22T04:27:35;102110.03;;;16.42;100.00
37860;BME280;23698;52.014;5.190;2022-07-22T04:30:40;102110.72;;;16.51;100.00
37860;BME280;23698;52.014;5.190;2022-07-22T04:33:46;102114.47;;;16.50;100.00
37860;BME280;23698;52.014;5.190;2022-07-22T04:36:51;102102.69;;;16.50;100.00
37860;BME280;23698;52.014;5.190;2022-07-22T04:39:57;102104.53;;;16.42;100.00
37860;BME280;23698;52.014;5.190;2022-07-22T04:43:04;102096.34;;;16.42;100.00
37860;BME280;23698;52.014;5.190;2022-07-22T04:46:10;102092.59;;;16.50;100.00
37860;BME280;23698;52.014;5.190;2022-07-22T04:49:18;102097.47;;;16.61;100.00
37860;BME280;23698;52.014;5.190;2022-07-22T04:52:24;102095.38;;;16.57;100.00
37860;BME280;23698;52.014;5.190;2022-07-22T04:55:30;102091.22;;;16.68;100.00
37860;BME280;23698;52.014;5.190;2022-07-22T04:58:38;102088.31;;;16.76;100.00
37860;BME280;23698;52.014;5.190;2022-07-22T05:01:43;102095.91;;;16.80;100.00
37860;BME280;23698;52.014;5.190;2022-07-22T05:04:49;102095.47;;;16.77;100.00
37860;BME280;23698;52.014;5.190;2022-07-22T05:08:01;102096.38;;;16.84;100.00
37860;BME280;23698;52.014;5.190;2022-07-22T05:11:07;102098.91;;;16.86;100.00
37860;BME280;23698;52.014;5.190;2022-07-22T05:14:14;102096.22;;;16.92;100.00
37860;BME280;23698;52.014;5.190;2022-07-22T05:17:20;102102.31;;;16.94;100.00
37860;BME280;23698;52.014;5.190;2022-07-22T05:20:38;102102.41;;;17.08;100.00
37860;BME280;23698;52.014;5.190;2022-07-22T05:23:43;102097.72;;;17.02;100.00
37860;BME280;23698;52.014;5.190;2022-07-22T05:26:51;102100.69;;;17.07;100.00
37860;BME280;23698;52.014;5.190;2022-07-22T05:29:58;102100.94;;;17.18;100.00
37860;BME280;23698;52.014;5.190;2022-07-22T05:33:04;102103.06;;;17.16;100.00
37860;BME280;23698;52.014;5.190;2022-07-22T05:36:27;102106.88;;;17.22;100.00
37860;BME280;23698;52.014;5.190;2022-07-22T05:39:33;102099.28;;;17.24;100.00
37860;BME280;23698;52.014;5.190;2022-07-22T05:42:39;102110.28;;;17.31;100.00
37860;BME280;23698;52.014;5.190;2022-07-22T05:45:45;102107.97;;;17.34;100.00
37860;BME280;23698;52.014;5.190;2022-07-22T05:48:50;102104.81;;;17.38;100.00
37860;BME280;23698;52.014;5.190;2022-07-22T05:51:56;102106.72;;;17.44;100.00
37860;BME280;23698;52.014;5.190;2022-07-22T05:55:04;102105.91;;;17.57;100.00
37860;BME280;23698;52.014;5.190;2022-07-22T05:58:10;102111.84;;;17.60;100.00
37860;BME280;23698;52.014;5.190;2022-07-22T06:01:17;102110.78;;;17.74;100.00
37860;BME280;23698;52.014;5.190;2022-07-22T06:04:22;102105.13;;;17.96;100.00
37860;BME280;23698;52.014;5.190;2022-07-22T06:07:28;102107.47;;;18.13;100.00
37860;BME280;23698;52.014;5.190;2022-07-22T06:10:36;102100.72;;;18.35;100.00
37860;BME280;23698;52.014;5.190;2022-07-22T06:13:42;102098.78;;;18.56;100.00
37860;BME280;23698;52.014;5.190;2022-07-22T06:16:49;102094.25;;;18.88;100.00
37860;BME280;23698;52.014;5.190;2022-07-22T06:19:54;102097.56;;;19.10;100.00
37860;BME280;23698;52.014;5.190;2022-07-22T06:22:59;102084.38;;;19.26;100.00
37860;BME280;23698;52.014;5.190;2022-07-22T06:26:06;102080.66;;;19.07;100.00
37860;BME280;23698;52.014;5.190;2022-07-22T06:29:12;102079.31;;;19.22;100.00
37860;BME280;23698;52.014;5.190;2022-07-22T06:32:18;102082.63;;;18.93;100.00
37860;BME280;23698;52.014;5.190;2022-07-22T06:35:24;102081.75;;;18.99;100.00
37860;BME280;23698;52.014;5.190;2022-07-22T06:38:31;102083.25;;;18.95;100.00
37860;BME280;23698;52.014;5.190;2022-07-22T06:41:52;102083.00;;;19.03;100.00
37860;BME280;23698;52.014;5.190;2022-07-22T06:45:18;102081.78;;;19.31;100.00
37860;BME280;23698;52.014;5.190;2022-07-22T06:48:40;102081.78;;;19.31;100.00
37860;BME280;23698;52.014;5.190;2022-07-22T06:51:45;102075.59;;;19.42;100.00
37860;BME280;23698;52.014;5.190;2022-07-22T06:54:51;102083.72;;;19.62;100.00
37860;BME280;23698;52.014;5.190;2022-07-22T06:58:01;102083.22;;;19.72;100.00
37860;BME280;23698;52.014;5.190;2022-07-22T07:01:06;102089.09;;;19.50;100.00
37860;BME280;23698;52.014;5.190;2022-07-22T07:04:19;102091.56;;;19.58;100.00
37860;BME280;23698;52.014;5.190;2022-07-22T07:07:26;102079.00;;;19.37;100.00
37860;BME280;23698;52.014;5.190;2022-07-22T07:10:32;102081.88;;;19.56;100.00
37860;BME280;23698;52.014;5.190;2022-07-22T07:13:43;102079.44;;;19.73;100.00
37860;BME280;23698;52.014;5.190;2022-07-22T07:16:48;102081.59;;;19.96;100.00
37860;BME280;23698;52.014;5.190;2022-07-22T07:19:55;102084.78;;;19.93;100.00
37860;BME280;23698;52.014;5.190;2022-07-22T07:23:01;102079.66;;;20.22;100.00
37860;BME280;23698;52.014;5.190;2022-07-22T07:26:09;102074.25;;;20.15;100.00
37860;BME280;23698;52.014;5.190;2022-07-22T07:29:15;102084.97;;;20.42;100.00
37860;BME280;23698;52.014;5.190;2022-07-22T07:32:27;102076.88;;;20.47;100.00
37860;BME280;23698;52.014;5.190;2022-07-22T07:35:34;102078.41;;;20.43;100.00
37860;BME280;23698;52.014;5.190;2022-07-22T07:38:40;102082.13;;;20.73;100.00
37860;BME280;23698;52.014;5.190;2022-07-22T07:41:50;102079.28;;;20.80;100.00
37860;BME280;23698;52.014;5.190;2022-07-22T07:44:59;102082.69;;;20.38;100.00
37860;BME280;23698;52.014;5.190;2022-07-22T07:48:05;102080.69;;;20.46;100.00
37860;BME280;23698;52.014;5.190;2022-07-22T07:51:13;102081.22;;;20.54;100.00
37860;BME280;23698;52.014;5.190;2022-07-22T07:54:19;102080.63;;;20.52;100.00
37860;BME280;23698;52.014;5.190;2022-07-22T07:57:26;102078.59;;;20.85;100.00
37860;BME280;23698;52.014;5.190;2022-07-22T08:00:32;102077.13;;;20.82;100.00
37860;BME280;23698;52.014;5.190;2022-07-22T08:03:38;102070.06;;;21.05;100.00
37860;BME280;23698;52.014;5.190;2022-07-22T08:06:45;102083.09;;;21.46;100.00
37860;BME280;23698;52.014;5.190;2022-07-22T08:09:51;102078.91;;;21.86;100.00
37860;BME280;23698;52.014;5.190;2022-07-22T08:13:52;102086.19;;;21.80;100.00
37860;BME280;23698;52.014;5.190;2022-07-22T08:17:19;102072.72;;;21.60;100.00
37860;BME280;23698;52.014;5.190;2022-07-22T08:20:24;102067.44;;;21.40;100.00
37860;BME280;23698;52.014;5.190;2022-07-22T08:23:31;102064.81;;;21.87;100.00
37860;BME280;23698;52.014;5.190;2022-07-22T08:26:37;102069.22;;;21.65;100.00
37860;BME280;23698;52.014;5.190;2022-07-22T08:29:42;102065.22;;;21.49;100.00
37860;BME280;23698;52.014;5.190;2022-07-22T08:32:48;102065.13;;;21.56;100.00
37860;BME280;23698;52.014;5.190;2022-07-22T08:35:54;102074.38;;;21.61;100.00
37860;BME280;23698;52.014;5.190;2022-07-22T08:39:00;102067.06;;;21.25;100.00
37860;BME280;23698;52.014;5.190;2022-07-22T08:42:07;102056.00;;;20.94;100.00
37860;BME280;23698;52.014;5.190;2022-07-22T08:45:14;102055.38;;;20.92;100.00
37860;BME280;23698;52.014;5.190;2022-07-22T08:48:23;102053.69;;;21.10;100.00
37860;BME280;23698;52.014;5.190;2022-07-22T08:51:40;102046.44;;;20.79;100.00
37860;BME280;23698;52.014;5.190;2022-07-22T08:55:12;102040.47;;;20.45;100.00
37860;BME280;23698;52.014;5.190;2022-07-22T08:58:17;102045.03;;;20.51;100.00
37860;BME280;23698;52.014;5.190;2022-07-22T09:01:23;102039.34;;;20.09;100.00
37860;BME280;23698;52.014;5.190;2022-07-22T09:04:31;102040.94;;;20.79;100.00
37860;BME280;23698;52.014;5.190;2022-07-22T09:07:39;102048.06;;;20.86;100.00
37860;BME280;23698;52.014;5.190;2022-07-22T09:10:54;102050.38;;;20.71;100.00
37860;BME280;23698;52.014;5.190;2022-07-22T09:14:43;102046.22;;;20.80;100.00
37860;BME280;23698;52.014;5.190;2022-07-22T09:18:27;102049.88;;;20.92;100.00
37860;BME280;23698;52.014;5.190;2022-07-22T09:21:58;102049.53;;;21.49;100.00
37860;BME280;23698;52.014;5.190;2022-07-22T09:25:21;102054.63;;;22.71;100.00
37860;BME280;23698;52.014;5.190;2022-07-22T09:28:58;102051.13;;;23.16;100.00
37860;BME280;23698;52.014;5.190;2022-07-22T09:32:06;102041.75;;;22.76;100.00
37860;BME280;23698;52.014;5.190;2022-07-22T09:35:31;102044.75;;;22.75;100.00
37860;BME280;23698;52.014;5.190;2022-07-22T09:38:37;102047.34;;;22.53;100.00
37860;BME280;23698;52.014;5.190;2022-07-22T09:41:56;102037.75;;;22.32;100.00
37860;BME280;23698;52.014;5.190;2022-07-22T09:45:04;102038.19;;;21.81;100.00
37860;BME280;23698;52.014;5.190;2022-07-22T09:48:17;102042.19;;;21.13;100.00
37860;BME280;23698;52.014;5.190;2022-07-22T09:51:43;102050.31;;;21.80;100.00
37860;BME280;23698;52.014;5.190;2022-07-22T09:55:00;102041.81;;;21.94;100.00
37860;BME280;23698;52.014;5.190;2022-07-22T09:58:12;102044.09;;;21.97;100.00
37860;BME280;23698;52.014;5.190;2022-07-22T10:01:20;102045.50;;;21.76;100.00
37860;BME280;23698;52.014;5.190;2022-07-22T10:04:30;102042.66;;;22.18;100.00
37860;BME280;23698;52.014;5.190;2022-07-22T10:07:37;102045.19;;;22.19;100.00
37860;BME280;23698;52.014;5.190;2022-07-22T10:10:44;102051.16;;;22.52;100.00
37860;BME280;23698;52.014;5.190;2022-07-22T10:13:50;102047.78;;;22.61;100.00
37860;BME280;23698;52.014;5.190;2022-07-22T10:16:59;102043.00;;;22.57;100.00
37860;BME280;23698;52.014;5.190;2022-07-22T10:20:11;102057.69;;;22.98;100.00
37860;BME280;23698;52.014;5.190;2022-07-22T10:23:16;102054.28;;;22.96;100.00
37860;BME280;23698;52.014;5.190;2022-07-22T10:26:48;102044.00;;;22.91;100.00
37860;BME280;23698;52.014;5.190;2022-07-22T10:29:54;102042.50;;;23.00;100.00
37860;BME280;23698;52.014;5.190;2022-07-22T10:33:08;102041.97;;;22.75;100.00
37860;BME280;23698;52.014;5.190;2022-07-22T10:36:29;102047.94;;;22.19;100.00
37860;BME280;23698;52.014;5.190;2022-07-22T10:43:23;102053.41;;;21.84;100.00
37860;BME280;23698;52.014;5.190;2022-07-22T10:46:50;102047.44;;;22.22;100.00
37860;BME280;23698;52.014;5.190;2022-07-22T10:53:47;102049.84;;;21.95;100.00
37860;BME280;23698;52.014;5.190;2022-07-22T10:56:57;102039.41;;;22.33;100.00
37860;BME280;23698;52.014;5.190;2022-07-22T11:00:05;102046.13;;;22.13;100.00
37860;BME280;23698;52.014;5.190;2022-07-22T11:03:11;102037.25;;;22.35;100.00
37860;BME280;23698;52.014;5.190;2022-07-22T11:06:22;102039.31;;;22.28;100.00
37860;BME280;23698;52.014;5.190;2022-07-22T11:09:32;102037.00;;;22.24;100.00
37860;BME280;23698;52.014;5.190;2022-07-22T11:12:39;102036.16;;;22.24;100.00
37860;BME280;23698;52.014;5.190;2022-07-22T11:15:45;102030.78;;;22.05;100.00
37860;BME280;23698;52.014;5.190;2022-07-22T11:18:52;102028.97;;;22.35;100.00
37860;BME280;23698;52.014;5.190;2022-07-22T11:22:00;102026.19;;;22.35;100.00
37860;BME280;23698;52.014;5.190;2022-07-22T11:25:10;102023.50;;;22.75;100.00
37860;BME280;23698;52.014;5.190;2022-07-22T11:28:16;102019.28;;;23.59;100.00
37860;BME280;23698;52.014;5.190;2022-07-22T11:31:21;102021.13;;;24.43;100.00
37860;BME280;23698;52.014;5.190;2022-07-22T11:34:27;102021.56;;;24.35;100.00
37860;BME280;23698;52.014;5.190;2022-07-22T11:37:34;102019.19;;;23.54;100.00
37860;BME280;23698;52.014;5.190;2022-07-22T11:40:42;102016.31;;;24.17;100.00
37860;BME280;23698;52.014;5.190;2022-07-22T11:43:48;102001.22;;;24.07;100.00
37860;BME280;23698;52.014;5.190;2022-07-22T11:46:54;101998.63;;;23.50;100.00
37860;BME280;23698;52.014;5.190;2022-07-22T11:50:02;101984.28;;;23.70;100.00
37860;BME280;23698;52.014;5.190;2022-07-22T11:53:09;101992.38;;;23.26;100.00
37860;BME280;23698;52.014;5.190;2022-07-22T11:56:14;101994.56;;;22.95;100.00
37860;BME280;23698;52.014;5.190;2022-07-22T11:59:20;101983.94;;;22.75;100.00
37860;BME280;23698;52.014;5.190;2022-07-22T12:02:26;101977.88;;;23.18;100.00
37860;BME280;23698;52.014;5.190;2022-07-22T12:05:36;101975.16;;;22.78;100.00
37860;BME280;23698;52.014;5.190;2022-07-22T12:08:46;101967.81;;;22.43;100.00
37860;BME280;23698;52.014;5.190;2022-07-22T12:11:53;101965.69;;;22.21;100.00
37860;BME280;23698;52.014;5.190;2022-07-22T12:14:58;101972.03;;;22.74;100.00
37860;BME280;23698;52.014;5.190;2022-07-22T12:18:22;101963.97;;;22.56;100.00
37860;BME280;23698;52.014;5.190;2022-07-22T12:21:29;101962.81;;;22.69;100.00
37860;BME280;23698;52.014;5.190;2022-07-22T12:24:37;101952.75;;;22.91;100.00
37860;BME280;23698;52.014;5.190;2022-07-22T12:27:59;101953.75;;;23.31;100.00
37860;BME280;23698;52.014;5.190;2022-07-22T12:31:04;101959.03;;;23.49;100.00
37860;BME280;23698;52.014;5.190;2022-07-22T12:34:10;101958.13;;;23.44;100.00
37860;BME280;23698;52.014;5.190;2022-07-22T12:37:18;101960.34;;;23.13;100.00
37860;BME280;23698;52.014;5.190;2022-07-22T12:40:25;101957.28;;;22.97;100.00
37860;BME280;23698;52.014;5.190;2022-07-22T12:43:31;101965.50;;;23.21;100.00
37860;BME280;23698;52.014;5.190;2022-07-22T12:46:44;101962.06;;;23.48;100.00
37860;BME280;23698;52.014;5.190;2022-07-22T12:49:49;101961.47;;;23.29;100.00
37860;BME280;23698;52.014;5.190;2022-07-22T12:52:56;101964.72;;;23.26;100.00
37860;BME280;23698;52.014;5.190;2022-07-22T12:56:21;101945.44;;;23.65;100.00
37860;BME280;23698;52.014;5.190;2022-07-22T12:59:27;101951.41;;;23.23;100.00
37860;BME280;23698;52.014;5.190;2022-07-22T13:02:32;101952.25;;;23.23;100.00
37860;BME280;23698;52.014;5.190;2022-07-22T13:05:38;101953.00;;;23.52;100.00
37860;BME280;23698;52.014;5.190;2022-07-22T13:08:45;101956.16;;;23.78;100.00
37860;BME280;23698;52.014;5.190;2022-07-22T13:11:52;101948.63;;;23.73;100.00
37860;BME280;23698;52.014;5.190;2022-07-22T13:14:57;101943.28;;;23.84;100.00
37860;BME280;23698;52.014;5.190;2022-07-22T13:18:03;101947.00;;;24.34;100.00
37860;BME280;23698;52.014;5.190;2022-07-22T13:21:09;101935.88;;;23.89;100.00
37860;BME280;23698;52.014;5.190;2022-07-22T13:24:14;101928.16;;;24.36;100.00
37860;BME280;23698;52.014;5.190;2022-07-22T13:27:21;101944.97;;;23.51;100.00
37860;BME280;23698;52.014;5.190;2022-07-22T13:30:27;101950.31;;;23.91;100.00
37860;BME280;23698;52.014;5.190;2022-07-22T13:33:32;101952.91;;;23.98;100.00
37860;BME280;23698;52.014;5.190;2022-07-22T13:36:38;101943.44;;;23.94;100.00
37860;BME280;23698;52.014;5.190;2022-07-22T13:39:43;101944.81;;;23.80;100.00
37860;BME280;23698;52.014;5.190;2022-07-22T13:42:52;101949.91;;;23.83;100.00
37860;BME280;23698;52.014;5.190;2022-07-22T13:45:58;101946.38;;;23.70;100.00
37860;BME280;23698;52.014;5.190;2022-07-22T13:49:03;101936.97;;;23.71;100.00
37860;BME280;23698;52.014;5.190;2022-07-22T13:52:08;101935.94;;;23.78;100.00
37860;BME280;23698;52.014;5.190;2022-07-22T13:55:14;101928.97;;;23.92;100.00
37860;BME280;23698;52.014;5.190;2022-07-22T13:58:21;101933.28;;;23.83;100.00
37860;BME280;23698;52.014;5.190;2022-07-22T14:01:28;101947.03;;;23.78;100.00
37860;BME280;23698;52.014;5.190;2022-07-22T14:04:34;101948.13;;;23.77;100.00
37860;BME280;23698;52.014;5.190;2022-07-22T14:07:39;101944.13;;;23.84;100.00
37860;BME280;23698;52.014;5.190;2022-07-22T14:10:45;101924.63;;;23.79;100.00
37860;BME280;23698;52.014;5.190;2022-07-22T14:13:52;101930.16;;;23.79;100.00
37860;BME280;23698;52.014;5.190;2022-07-22T14:16:58;101921.41;;;23.31;100.00
37860;BME280;23698;52.014;5.190;2022-07-22T14:20:05;101919.03;;;23.23;100.00
37860;BME280;23698;52.014;5.190;2022-07-22T14:23:11;101934.47;;;23.53;100.00
37860;BME280;23698;52.014;5.190;2022-07-22T14:26:17;101948.47;;;23.12;100.00
37860;BME280;23698;52.014;5.190;2022-07-22T14:29:24;101929.53;;;23.38;100.00
37860;BME280;23698;52.014;5.190;2022-07-22T14:32:30;101937.22;;;23.36;100.00
37860;BME280;23698;52.014;5.190;2022-07-22T14:35:35;101925.53;;;24.02;100.00
37860;BME280;23698;52.014;5.190;2022-07-22T14:38:40;101910.19;;;23.94;100.00
37860;BME280;23698;52.014;5.190;2022-07-22T14:41:45;101931.25;;;24.39;100.00
37860;BME280;23698;52.014;5.190;2022-07-22T14:44:52;101903.00;;;24.15;100.00
37860;BME280;23698;52.014;5.190;2022-07-22T14:47:57;101916.81;;;23.93;100.00
37860;BME280;23698;52.014;5.190;2022-07-22T14:51:02;101927.00;;;23.70;100.00
37860;BME280;23698;52.014;5.190;2022-07-22T14:54:08;101936.00;;;24.61;100.00
37860;BME280;23698;52.014;5.190;2022-07-22T14:57:15;101936.88;;;24.66;100.00
37860;BME280;23698;52.014;5.190;2022-07-22T15:00:21;101915.84;;;24.98;100.00
37860;BME280;23698;52.014;5.190;2022-07-22T15:03:26;101909.53;;;24.75;100.00
37860;BME280;23698;52.014;5.190;2022-07-22T15:06:32;101904.28;;;24.29;100.00
37860;BME280;23698;52.014;5.190;2022-07-22T15:09:37;101922.34;;;24.81;100.00
37860;BME280;23698;52.014;5.190;2022-07-22T15:12:44;101911.97;;;25.63;100.00
37860;BME280;23698;52.014;5.190;2022-07-22T15:15:54;101904.41;;;25.54;100.00
37860;BME280;23698;52.014;5.190;2022-07-22T15:18:59;101916.56;;;25.48;100.00
37860;BME280;23698;52.014;5.190;2022-07-22T15:22:05;101912.03;;;26.27;100.00
37860;BME280;23698;52.014;5.190;2022-07-22T15:25:10;101924.38;;;25.93;100.00
37860;BME280;23698;52.014;5.190;2022-07-22T15:28:16;101916.75;;;26.26;100.00
37860;BME280;23698;52.014;5.190;2022-07-22T15:31:39;101894.19;;;26.17;100.00
37860;BME280;23698;52.014;5.190;2022-07-22T15:34:45;101885.38;;;26.36;100.00
37860;BME280;23698;52.014;5.190;2022-07-22T15:37:50;101876.16;;;26.20;99.35
37860;BME280;23698;52.014;5.190;2022-07-22T15:40:55;101880.34;;;26.28;100.00
37860;BME280;23698;52.014;5.190;2022-07-22T15:44:02;101888.00;;;26.00;100.00
37860;BME280;23698;52.014;5.190;2022-07-22T15:47:08;101883.53;;;24.81;100.00
37860;BME280;23698;52.014;5.190;2022-07-22T15:50:14;101884.25;;;24.00;100.00
37860;BME280;23698;52.014;5.190;2022-07-22T15:53:20;101890.94;;;24.04;100.00
37860;BME280;23698;52.014;5.190;2022-07-22T15:56:25;101886.13;;;24.17;100.00
37860;BME280;23698;52.014;5.190;2022-07-22T15:59:30;101883.53;;;23.88;100.00
37860;BME280;23698;52.014;5.190;2022-07-22T16:02:37;101886.69;;;23.80;100.00
37860;BME280;23698;52.014;5.190;2022-07-22T16:05:42;101877.50;;;23.57;100.00
37860;BME280;23698;52.014;5.190;2022-07-22T16:08:47;101872.44;;;23.88;100.00
37860;BME280;23698;52.014;5.190;2022-07-22T16:11:53;101878.38;;;24.19;100.00
37860;BME280;23698;52.014;5.190;2022-07-22T16:14:58;101868.22;;;24.52;100.00
37860;BME280;23698;52.014;5.190;2022-07-22T16:18:05;101878.97;;;24.70;100.00
37860;BME280;23698;52.014;5.190;2022-07-22T16:21:10;101884.69;;;24.36;100.00